Norwegian Jade — C6WK7 — position and weather

sailwx.info

Track history (hours):
 
Tides and Currents Weather Stations Pressure Air Temp Water Temp Dewpoint Dewpoint Depression Visibility Wind Speed Wind Dir Waves Ship Positions

Norwegian Jade

Last reported at 2019-Sep-19 19:30 UTC. Time now 2019-Sep-19 19:53 UTC.
Position N 38°57' E 015°16'.

Length 294 m; draft 8.5 m.

Type: Passenger vessel. MMSI: 308416000.

Date/timePositionNaut miles runAvg speedWind from/ knotsBaromVisibWave heightAir tempDewpointWater temp
2019-Sep-19 19:30N 38°57' E 015°16'715.4
2019-Sep-19 19:01N 38°51' E 015°21'815.5
2019-Sep-19 18:30N 38°44' E 015°26'815.5
2019-Sep-19 18:00N 38°37' E 015°31'815.7
2019-Sep-19 17:30N 38°30' E 015°35'815.8
2019-Sep-19 17:00N 38°23' E 015°40'714.4
2019-Sep-19 16:30N 38°16' E 015°41'714.3
2019-Sep-19 16:00N 38°12' E 015°34'1 0.9
2019-Sep-19 15:28N 38°12' E 015°33'0 0.0
2019-Sep-19 14:55N 38°12' E 015°33'0 0.0
2019-Sep-19 14:28N 38°12' E 015°33'0 0.0
2019-Sep-19 13:58N 38°12' E 015°33'0 0.0
2019-Sep-19 13:28N 38°12' E 015°33'0 0.0
2019-Sep-19 12:58N 38°12' E 015°33'0 0.0
2019-Sep-19 12:25N 38°12' E 015°33'0 0.0
2019-Sep-19 11:55N 38°12' E 015°33'0 0.0
2019-Sep-19 11:28N 38°12' E 015°33'0 0.0
2019-Sep-19 10:58N 38°12' E 015°33'0 0.0
2019-Sep-19 10:22N 38°12' E 015°33'0 0.0
2019-Sep-19 09:55N 38°12' E 015°33'0 0.0
2019-Sep-19 09:28N 38°12' E 015°33'0 0.0
2019-Sep-19 08:55N 38°12' E 015°33'0 0.0
2019-Sep-19 08:13N 38°12' E 015°33'0 0.0
2019-Sep-19 07:52N 38°12' E 015°33'0 0.0
2019-Sep-19 07:25N 38°12' E 015°33'0 0.0
2019-Sep-19 06:55N 38°12' E 015°33'0 0.0
2019-Sep-19 06:28N 38°12' E 015°33'0 0.0
2019-Sep-19 05:55N 38°12' E 015°33'0 0.0
2019-Sep-19 05:30N 38°12' E 015°33'1 2.6
2019-Sep-19 05:00N 38°13' E 015°34'510.5
2019-Sep-19 04:30N 38°08' E 015°36'917.2
2019-Sep-19 04:00N 37°59' E 015°35'816.1
2019-Sep-19 03:30N 37°51' E 015°34'815.3
2019-Sep-19 03:00N 37°43' E 015°33'915.7
2019-Sep-19 02:27N 37°35' E 015°32'715.2
2019-Sep-19 02:00N 37°28' E 015°31'815.2
2019-Sep-19 01:30N 37°21' E 015°30'815.3
2019-Sep-19 01:00N 37°13' E 015°28'715.0
2019-Sep-19 00:30N 37°06' E 015°27'38210.7
2019-Sep-17 12:54N 35°45' E 023°12'1020.1
2019-Sep-17 12:24N 35°45' E 023°24'110 5.9
2019-Sep-16 17:35N 37°06' E 024°57'112.6
2019-Sep-16 17:31N 37°07' E 024°57'612.6
2019-Sep-16 17:00N 37°13' E 025°00'612.8
2019-Sep-16 16:30N 37°18' E 025°04'612.6
2019-Sep-16 16:00N 37°24' E 025°08'611.5
2019-Sep-16 15:31N 37°28' E 025°13'5 9.5
2019-Sep-16 15:01N 37°28' E 025°19'0 0.0
2019-Sep-16 14:26N 37°28' E 025°19'0 0.0
2019-Sep-16 13:50N 37°28' E 025°19'0 0.0
2019-Sep-16 13:26N 37°28' E 025°19'0 0.0
2019-Sep-16 12:59N 37°28' E 025°19'0 0.0
2019-Sep-16 12:29N 37°28' E 025°19'0 0.0
2019-Sep-16 11:59N 37°28' E 025°19'0 0.0
2019-Sep-16 11:29N 37°28' E 025°19'0 0.0
2019-Sep-16 10:59N 37°28' E 025°19'0 0.0
2019-Sep-16 10:17N 37°28' E 025°19'0 0.0
2019-Sep-16 09:59N 37°28' E 025°19'0 0.0
2019-Sep-16 09:29N 37°28' E 025°19'0 0.0
2019-Sep-16 08:59N 37°28' E 025°19'0 0.0
2019-Sep-16 08:26N 37°28' E 025°19'0 0.0
2019-Sep-16 07:59N 37°28' E 025°19'0 0.0
2019-Sep-16 07:26N 37°28' E 025°19'0 0.0
2019-Sep-16 06:59N 37°28' E 025°19'0 0.0
2019-Sep-16 06:29N 37°28' E 025°19'0 0.0
2019-Sep-16 05:59N 37°28' E 025°19'0 0.0
2019-Sep-16 05:29N 37°28' E 025°19'0 0.0
2019-Sep-16 05:00N 37°28' E 025°19'0 0.6
2019-Sep-16 04:30N 37°28' E 025°19'1 1.9
2019-Sep-16 04:00N 37°27' E 025°18'4 7.9
2019-Sep-16 03:30N 37°28' E 025°13'4 8.4
2019-Sep-16 03:00N 37°29' E 025°08'4 8.8
2019-Sep-16 02:30N 37°31' E 025°03'5 9.2
2019-Sep-16 02:00N 37°32' E 024°57'4 8.8
2019-Sep-16 01:30N 37°33' E 024°52'4 8.8
2019-Sep-16 01:00N 37°32' E 024°46'36 7.8
2019-Sep-15 20:21N 37°32' E 024°00'3 7.9
2019-Sep-15 20:00N 37°33' E 023°57'4 7.9
2019-Sep-15 19:30N 37°35' E 023°53'4 7.9
2019-Sep-15 19:00N 37°37' E 023°48'4 8.0
2019-Sep-15 18:30N 37°39' E 023°44'4 7.8
2019-Sep-15 18:00N 37°42' E 023°41'4 8.1
2019-Sep-15 17:30N 37°46' E 023°39'4 8.1
2019-Sep-15 17:00N 37°49' E 023°37'4 8.4
2019-Sep-15 16:30N 37°54' E 023°37'3 5.5
2019-Sep-15 16:00N 37°56' E 023°37'0 0.0
2019-Sep-15 15:28N 37°56' E 023°37'0 0.0
2019-Sep-15 14:58N 37°56' E 023°37'0 0.0
2019-Sep-15 14:28N 37°56' E 023°37'0 0.0
2019-Sep-15 13:58N 37°56' E 023°37'0 0.0
2019-Sep-15 13:28N 37°56' E 023°37'0 0.0
2019-Sep-15 12:58N 37°56' E 023°37'0 0.0
2019-Sep-15 12:28N 37°56' E 023°37'0 0.0
2019-Sep-15 11:55N 37°56' E 023°37'0 0.0
2019-Sep-15 11:28N 37°56' E 023°37'0 0.0
2019-Sep-15 10:58N 37°56' E 023°37'0 0.0
2019-Sep-15 10:28N 37°56' E 023°37'0 0.0
2019-Sep-15 09:58N 37°56' E 023°37'0 0.0
2019-Sep-15 09:28N 37°56' E 023°37'0 0.0
2019-Sep-15 08:58N 37°56' E 023°37'0 0.0
2019-Sep-15 08:28N 37°56' E 023°37'0 0.0
2019-Sep-15 07:58N 37°56' E 023°37'0 0.0
2019-Sep-15 07:28N 37°56' E 023°37'0 0.0
2019-Sep-15 06:58N 37°56' E 023°37'0 0.0
2019-Sep-15 06:28N 37°56' E 023°37'0 0.0
2019-Sep-15 05:55N 37°56' E 023°37'0 0.0
2019-Sep-15 05:28N 37°56' E 023°37'0 0.0
2019-Sep-15 04:58N 37°56' E 023°37'0 0.0
2019-Sep-15 04:28N 37°56' E 023°37'0 0.0
2019-Sep-15 04:00N 37°56' E 023°37'1 2.0
2019-Sep-15 03:30N 37°55' E 023°37'713.6
2019-Sep-15 03:00N 37°49' E 023°40'612.3
2019-Sep-15 02:30N 37°44' E 023°43'4 8.9
2019-Sep-15 02:00N 37°40' E 023°46'612.5
2019-Sep-15 01:30N 37°33' E 023°47'815.2
2019-Sep-15 01:00N 37°26' E 023°49'371 9.1
2019-Sep-13 08:02N 37°49' E 016°02'119.8
2019-Sep-13 08:00N 37°49' E 016°02'1020.1
2019-Sep-13 07:29N 37°52' E 015°49'918.2
2019-Sep-13 07:00N 37°54' E 015°38'917.3
2019-Sep-13 06:31N 38°02' E 015°34'918.7
2019-Sep-13 06:00N 38°12' E 015°36'714.8
2019-Sep-13 05:30N 38°18' E 015°40'816.8
2019-Sep-13 05:00N 38°26' E 015°36'918.1
2019-Sep-13 04:30N 38°34' E 015°31'1020.2
2019-Sep-13 04:00N 38°43' E 015°25'1020.3
2019-Sep-13 03:30N 38°52' E 015°19'8121.1
2019-Sep-12 23:40N 39°49' E 014°05'820.3
2019-Sep-12 23:17N 39°55' E 013°58'1220.2
2019-Sep-12 22:40N 40°04' E 013°47'320.1
2019-Sep-12 22:30N 40°06' E 013°44'1121.1
2019-Sep-12 22:01N 40°14' E 013°35'1222.6
2019-Sep-12 21:30N 40°22' E 013°24'1122.5
2019-Sep-12 21:00N 40°30' E 013°14'1122.6
2019-Sep-12 20:30N 40°38' E 013°03'1122.6
2019-Sep-12 20:00N 40°46' E 012°53'1622.5
2019-Sep-12 19:18N 40°58' E 012°39'622.5
2019-Sep-12 19:01N 41°04' E 012°35'1122.7
2019-Sep-12 18:31N 41°13' E 012°26'1122.8
2019-Sep-12 18:01N 41°23' E 012°18'1122.9
2019-Sep-12 17:31N 41°32' E 012°09'1222.7
2019-Sep-12 17:00N 41°42' E 012°00'1621.6
2019-Sep-12 16:16N 41°54' E 011°48'118 2.5
2019-Sep-10 17:09N 40°39' E 013°48'321.1
2019-Sep-10 17:01N 40°39' E 013°52'1019.6
2019-Sep-10 16:31N 40°40' E 014°05'714.6
2019-Sep-10 16:01N 40°45' E 014°12'612.3
2019-Sep-10 15:31N 40°50' E 014°16'1 1.0
2019-Sep-10 15:00N 40°50' E 014°16'0 0.0
2019-Sep-10 14:30N 40°50' E 014°16'0 0.0
2019-Sep-10 14:00N 40°50' E 014°16'0 0.0
2019-Sep-10 13:30N 40°50' E 014°16'0 0.0
2019-Sep-10 13:00N 40°50' E 014°16'0 0.0
2019-Sep-10 12:30N 40°50' E 014°16'0 0.0
2019-Sep-10 12:00N 40°50' E 014°16'0 0.0
2019-Sep-10 11:30N 40°50' E 014°16'0 0.0
2019-Sep-10 11:00N 40°50' E 014°16'0 0.0
2019-Sep-10 10:30N 40°50' E 014°16'0 0.0
2019-Sep-10 10:00N 40°50' E 014°16'0 0.0
2019-Sep-10 09:30N 40°50' E 014°16'0 0.0
2019-Sep-10 09:00N 40°50' E 014°16'0 0.0
2019-Sep-10 08:30N 40°50' E 014°16'0 0.0
2019-Sep-10 08:00N 40°50' E 014°16'0 0.0
2019-Sep-10 07:30N 40°50' E 014°16'0 0.0
2019-Sep-10 07:00N 40°50' E 014°16'0 0.0
2019-Sep-10 06:30N 40°50' E 014°16'0 0.0
2019-Sep-10 06:00N 40°50' E 014°16'0 0.0
2019-Sep-10 05:30N 40°50' E 014°16'0 0.0
2019-Sep-10 05:00N 40°50' E 014°16'1 1.1
2019-Sep-10 04:31N 40°50' E 014°16'2 4.5
2019-Sep-10 04:01N 40°48' E 014°17'816.0
2019-Sep-10 03:31N 40°41' E 014°12'1019.0
2019-Sep-10 03:00N 40°31' E 014°10'1020.6
2019-Sep-10 02:30N 40°23' E 014°16'1020.4
2019-Sep-10 02:00N 40°14' E 014°23'1020.5
2019-Sep-10 01:30N 40°05' E 014°30'7420.2
2019-Sep-09 21:50N 38°60' E 015°15'822.7
2019-Sep-09 21:30N 38°53' E 015°20'1122.8
2019-Sep-09 21:00N 38°43' E 015°27'1020.9
2019-Sep-09 20:30N 38°34' E 015°33'1020.5
2019-Sep-09 20:00N 38°25' E 015°39'917.6
2019-Sep-09 19:30N 38°16' E 015°42'  
Track history (hours):
 
Tides and Currents Weather Stations Pressure Air Temp Water Temp Dewpoint Dewpoint Depression Visibility Wind Speed Wind Dir Waves Ship Positions

Norwegian Jade

Last reported at 2019-Sep-19 19:30 UTC. Time now 2019-Sep-19 19:53 UTC.
Position N 38°57' E 015°16'.

Length 294 m; draft 8.5 m.

Type: Passenger vessel. MMSI: 308416000.

Date/timePositionNaut miles runAvg speedWind from/ knotsBaromVisibWave heightAir tempDewpointWater temp
2019-Sep-19 19:30N 38°57' E 015°16'715.4
2019-Sep-19 19:01N 38°51' E 015°21'815.5
2019-Sep-19 18:30N 38°44' E 015°26'815.5
2019-Sep-19 18:00N 38°37' E 015°31'815.7
2019-Sep-19 17:30N 38°30' E 015°35'815.8
2019-Sep-19 17:00N 38°23' E 015°40'714.4
2019-Sep-19 16:30N 38°16' E 015°41'714.3
2019-Sep-19 16:00N 38°12' E 015°34'1 0.9
2019-Sep-19 15:28N 38°12' E 015°33'0 0.0
2019-Sep-19 14:55N 38°12' E 015°33'0 0.0
2019-Sep-19 14:28N 38°12' E 015°33'0 0.0
2019-Sep-19 13:58N 38°12' E 015°33'0 0.0
2019-Sep-19 13:28N 38°12' E 015°33'0 0.0
2019-Sep-19 12:58N 38°12' E 015°33'0 0.0
2019-Sep-19 12:25N 38°12' E 015°33'0 0.0
2019-Sep-19 11:55N 38°12' E 015°33'0 0.0
2019-Sep-19 11:28N 38°12' E 015°33'0 0.0
2019-Sep-19 10:58N 38°12' E 015°33'0 0.0
2019-Sep-19 10:22N 38°12' E 015°33'0 0.0
2019-Sep-19 09:55N 38°12' E 015°33'0 0.0
2019-Sep-19 09:28N 38°12' E 015°33'0 0.0
2019-Sep-19 08:55N 38°12' E 015°33'0 0.0
2019-Sep-19 08:13N 38°12' E 015°33'0 0.0
2019-Sep-19 07:52N 38°12' E 015°33'0 0.0
2019-Sep-19 07:25N 38°12' E 015°33'0 0.0
2019-Sep-19 06:55N 38°12' E 015°33'0 0.0
2019-Sep-19 06:28N 38°12' E 015°33'0 0.0
2019-Sep-19 05:55N 38°12' E 015°33'0 0.0
2019-Sep-19 05:30N 38°12' E 015°33'1 2.6
2019-Sep-19 05:00N 38°13' E 015°34'510.5
2019-Sep-19 04:30N 38°08' E 015°36'917.2
2019-Sep-19 04:00N 37°59' E 015°35'816.1
2019-Sep-19 03:30N 37°51' E 015°34'815.3
2019-Sep-19 03:00N 37°43' E 015°33'915.7
2019-Sep-19 02:27N 37°35' E 015°32'715.2
2019-Sep-19 02:00N 37°28' E 015°31'815.2
2019-Sep-19 01:30N 37°21' E 015°30'815.3
2019-Sep-19 01:00N 37°13' E 015°28'715.0
2019-Sep-19 00:30N 37°06' E 015°27'38210.7
2019-Sep-17 12:54N 35°45' E 023°12'1020.1
2019-Sep-17 12:24N 35°45' E 023°24'110 5.9
2019-Sep-16 17:35N 37°06' E 024°57'112.6
2019-Sep-16 17:31N 37°07' E 024°57'612.6
2019-Sep-16 17:00N 37°13' E 025°00'612.8
2019-Sep-16 16:30N 37°18' E 025°04'612.6
2019-Sep-16 16:00N 37°24' E 025°08'611.5
2019-Sep-16 15:31N 37°28' E 025°13'5 9.5
2019-Sep-16 15:01N 37°28' E 025°19'0 0.0
2019-Sep-16 14:26N 37°28' E 025°19'0 0.0
2019-Sep-16 13:50N 37°28' E 025°19'0 0.0
2019-Sep-16 13:26N 37°28' E 025°19'0 0.0
2019-Sep-16 12:59N 37°28' E 025°19'0 0.0
2019-Sep-16 12:29N 37°28' E 025°19'0 0.0
2019-Sep-16 11:59N 37°28' E 025°19'0 0.0
2019-Sep-16 11:29N 37°28' E 025°19'0 0.0
2019-Sep-16 10:59N 37°28' E 025°19'0 0.0
2019-Sep-16 10:17N 37°28' E 025°19'0 0.0
2019-Sep-16 09:59N 37°28' E 025°19'0 0.0
2019-Sep-16 09:29N 37°28' E 025°19'0 0.0
2019-Sep-16 08:59N 37°28' E 025°19'0 0.0
2019-Sep-16 08:26N 37°28' E 025°19'0 0.0
2019-Sep-16 07:59N 37°28' E 025°19'0 0.0
2019-Sep-16 07:26N 37°28' E 025°19'0 0.0
2019-Sep-16 06:59N 37°28' E 025°19'0 0.0
2019-Sep-16 06:29N 37°28' E 025°19'0 0.0
2019-Sep-16 05:59N 37°28' E 025°19'0 0.0
2019-Sep-16 05:29N 37°28' E 025°19'0 0.0
2019-Sep-16 05:00N 37°28' E 025°19'0 0.6
2019-Sep-16 04:30N 37°28' E 025°19'1 1.9
2019-Sep-16 04:00N 37°27' E 025°18'4 7.9
2019-Sep-16 03:30N 37°28' E 025°13'4 8.4
2019-Sep-16 03:00N 37°29' E 025°08'4 8.8
2019-Sep-16 02:30N 37°31' E 025°03'5 9.2
2019-Sep-16 02:00N 37°32' E 024°57'4 8.8
2019-Sep-16 01:30N 37°33' E 024°52'4 8.8
2019-Sep-16 01:00N 37°32' E 024°46'36 7.8
2019-Sep-15 20:21N 37°32' E 024°00'3 7.9
2019-Sep-15 20:00N 37°33' E 023°57'4 7.9
2019-Sep-15 19:30N 37°35' E 023°53'4 7.9
2019-Sep-15 19:00N 37°37' E 023°48'4 8.0
2019-Sep-15 18:30N 37°39' E 023°44'4 7.8
2019-Sep-15 18:00N 37°42' E 023°41'4 8.1
2019-Sep-15 17:30N 37°46' E 023°39'4 8.1
2019-Sep-15 17:00N 37°49' E 023°37'4 8.4
2019-Sep-15 16:30N 37°54' E 023°37'3 5.5
2019-Sep-15 16:00N 37°56' E 023°37'0 0.0
2019-Sep-15 15:28N 37°56' E 023°37'0 0.0
2019-Sep-15 14:58N 37°56' E 023°37'0 0.0
2019-Sep-15 14:28N 37°56' E 023°37'0 0.0
2019-Sep-15 13:58N 37°56' E 023°37'0 0.0
2019-Sep-15 13:28N 37°56' E 023°37'0 0.0
2019-Sep-15 12:58N 37°56' E 023°37'0 0.0
2019-Sep-15 12:28N 37°56' E 023°37'0 0.0
2019-Sep-15 11:55N 37°56' E 023°37'0 0.0
2019-Sep-15 11:28N 37°56' E 023°37'0 0.0
2019-Sep-15 10:58N 37°56' E 023°37'0 0.0
2019-Sep-15 10:28N 37°56' E 023°37'0 0.0
2019-Sep-15 09:58N 37°56' E 023°37'0 0.0
2019-Sep-15 09:28N 37°56' E 023°37'0 0.0
2019-Sep-15 08:58N 37°56' E 023°37'0 0.0
2019-Sep-15 08:28N 37°56' E 023°37'0 0.0
2019-Sep-15 07:58N 37°56' E 023°37'0 0.0
2019-Sep-15 07:28N 37°56' E 023°37'0 0.0
2019-Sep-15 06:58N 37°56' E 023°37'0 0.0
2019-Sep-15 06:28N 37°56' E 023°37'0 0.0
2019-Sep-15 05:55N 37°56' E 023°37'0 0.0
2019-Sep-15 05:28N 37°56' E 023°37'0 0.0
2019-Sep-15 04:58N 37°56' E 023°37'0 0.0
2019-Sep-15 04:28N 37°56' E 023°37'0 0.0
2019-Sep-15 04:00N 37°56' E 023°37'1 2.0
2019-Sep-15 03:30N 37°55' E 023°37'713.6
2019-Sep-15 03:00N 37°49' E 023°40'612.3
2019-Sep-15 02:30N 37°44' E 023°43'4 8.9
2019-Sep-15 02:00N 37°40' E 023°46'612.5
2019-Sep-15 01:30N 37°33' E 023°47'815.2
2019-Sep-15 01:00N 37°26' E 023°49'371 9.1
2019-Sep-13 08:02N 37°49' E 016°02'119.8
2019-Sep-13 08:00N 37°49' E 016°02'1020.1
2019-Sep-13 07:29N 37°52' E 015°49'918.2
2019-Sep-13 07:00N 37°54' E 015°38'917.3
2019-Sep-13 06:31N 38°02' E 015°34'918.7
2019-Sep-13 06:00N 38°12' E 015°36'714.8
2019-Sep-13 05:30N 38°18' E 015°40'816.8
2019-Sep-13 05:00N 38°26' E 015°36'918.1
2019-Sep-13 04:30N 38°34' E 015°31'1020.2
2019-Sep-13 04:00N 38°43' E 015°25'1020.3
2019-Sep-13 03:30N 38°52' E 015°19'8121.1
2019-Sep-12 23:40N 39°49' E 014°05'820.3
2019-Sep-12 23:17N 39°55' E 013°58'1220.2
2019-Sep-12 22:40N 40°04' E 013°47'320.1
2019-Sep-12 22:30N 40°06' E 013°44'1121.1
2019-Sep-12 22:01N 40°14' E 013°35'1222.6
2019-Sep-12 21:30N 40°22' E 013°24'1122.5
2019-Sep-12 21:00N 40°30' E 013°14'1122.6
2019-Sep-12 20:30N 40°38' E 013°03'1122.6
2019-Sep-12 20:00N 40°46' E 012°53'1622.5
2019-Sep-12 19:18N 40°58' E 012°39'622.5
2019-Sep-12 19:01N 41°04' E 012°35'1122.7
2019-Sep-12 18:31N 41°13' E 012°26'1122.8
2019-Sep-12 18:01N 41°23' E 012°18'1122.9
2019-Sep-12 17:31N 41°32' E 012°09'1222.7
2019-Sep-12 17:00N 41°42' E 012°00'1621.6
2019-Sep-12 16:16N 41°54' E 011°48'118 2.5
2019-Sep-10 17:09N 40°39' E 013°48'321.1
2019-Sep-10 17:01N 40°39' E 013°52'1019.6
2019-Sep-10 16:31N 40°40' E 014°05'714.6
2019-Sep-10 16:01N 40°45' E 014°12'612.3
2019-Sep-10 15:31N 40°50' E 014°16'1 1.0
2019-Sep-10 15:00N 40°50' E 014°16'0 0.0
2019-Sep-10 14:30N 40°50' E 014°16'0 0.0
2019-Sep-10 14:00N 40°50' E 014°16'0 0.0
2019-Sep-10 13:30N 40°50' E 014°16'0 0.0
2019-Sep-10 13:00N 40°50' E 014°16'0 0.0
2019-Sep-10 12:30N 40°50' E 014°16'0 0.0
2019-Sep-10 12:00N 40°50' E 014°16'0 0.0
2019-Sep-10 11:30N 40°50' E 014°16'0 0.0
2019-Sep-10 11:00N 40°50' E 014°16'0 0.0
2019-Sep-10 10:30N 40°50' E 014°16'0 0.0
2019-Sep-10 10:00N 40°50' E 014°16'0 0.0
2019-Sep-10 09:30N 40°50' E 014°16'0 0.0
2019-Sep-10 09:00N 40°50' E 014°16'0 0.0
2019-Sep-10 08:30N 40°50' E 014°16'0 0.0
2019-Sep-10 08:00N 40°50' E 014°16'0 0.0
2019-Sep-10 07:30N 40°50' E 014°16'0 0.0
2019-Sep-10 07:00N 40°50' E 014°16'0 0.0
2019-Sep-10 06:30N 40°50' E 014°16'0 0.0
2019-Sep-10 06:00N 40°50' E 014°16'0 0.0
2019-Sep-10 05:30N 40°50' E 014°16'0 0.0
2019-Sep-10 05:00N 40°50' E 014°16'1 1.1
2019-Sep-10 04:31N 40°50' E 014°16'2 4.5
2019-Sep-10 04:01N 40°48' E 014°17'816.0
2019-Sep-10 03:31N 40°41' E 014°12'1019.0
2019-Sep-10 03:00N 40°31' E 014°10'1020.6
2019-Sep-10 02:30N 40°23' E 014°16'1020.4
2019-Sep-10 02:00N 40°14' E 014°23'1020.5
2019-Sep-10 01:30N 40°05' E 014°30'7420.2
2019-Sep-09 21:50N 38°60' E 015°15'822.7
2019-Sep-09 21:30N 38°53' E 015°20'1122.8
2019-Sep-09 21:00N 38°43' E 015°27'1020.9
2019-Sep-09 20:30N 38°34' E 015°33'1020.5
2019-Sep-09 20:00N 38°25' E 015°39'917.6
2019-Sep-09 19:30N 38°16' E 015°42'  

Dump ship's entire track history